Time;durP1;ratioP1;P1;durP2;ratioP2;P2;SDS_P1;SDS_P2;PMS_P1;PMS_P2;Temp;Humidity;BMP_temperature;BMP_pressure;BME280_temperature;BME280_humidity;BME280_pressure;Samples;Min_cycle;Max_cycle;Signal;HPM_P1;HPM_P2
2021/05/15 00:00:53;;;;;;;1.43;0.40;;;;;;;;;;6185245;23;20029;-61
2021/05/15 00:03:19;;;;;;;3.07;0.80;;;;;;;;;;6185184;23;20001;-62
2021/05/15 00:05:46;;;;;;;2.00;0.60;;;;;;;;;;6185287;23;20152;-62
2021/05/15 00:08:14;;;;;;;2.23;0.87;;;;;;;;;;6185166;23;20004;-62
2021/05/15 00:10:49;;;;;;;5.60;1.40;;;;;;;;;;6185087;23;20005;-61
2021/05/15 00:13:27;;;;;;;3.57;0.90;;;;;;;;;;6185146;23;20024;-61
2021/05/15 00:16:21;;;;;;;3.97;1.33;;;;;;;;;;6185169;23;20435;-62
2021/05/15 00:18:54;;;;;;;5.17;1.80;;;;;;;;;;6185219;23;20080;-61
2021/05/15 00:21:22;;;;;;;3.57;1.53;;;;;;;;;;6184656;23;20005;-61
2021/05/15 00:23:51;;;;;;;3.93;1.60;;;;;;;;;;6185132;23;20320;-60
2021/05/15 00:26:39;;;;;;;5.27;1.33;;;;;;;;;;6185086;23;20009;-60
2021/05/15 00:29:13;;;;;;;4.40;1.10;;;;;;;;;;6158543;23;20009;-61
2021/05/15 00:31:53;;;;;;;4.53;1.10;;;;;;;;;;6185210;23;19997;-61
2021/05/15 00:34:28;;;;;;;3.10;1.00;;;;;;;;;;6184674;23;20001;-60
2021/05/15 00:37:01;;;;;;;4.40;1.20;;;;;;;;;;6186971;22;20392;-61
2021/05/15 00:39:33;;;;;;;2.80;1.10;;;;;;;;;;6185463;23;19993;-60
2021/05/15 00:42:03;;;;;;;4.73;1.40;;;;;;;;;;6187418;23;20369;-61
2021/05/15 00:44:47;;;;;;;4.90;1.90;;;;;;;;;;6186947;23;20089;-61
2021/05/15 00:47:29;;;;;;;4.35;2.30;;;;;;;;;;6186629;23;20009;-61
2021/05/15 00:50:03;;;;;;;7.17;3.70;;;;;;;;;;6186031;23;20012;-60
2021/05/15 00:52:34;;;;;;;6.80;3.50;;;;;;;;;;6186519;23;20428;-60
2021/05/15 00:55:01;;;;;;;4.53;2.17;;;;;;;;;;6186772;23;20013;-62
2021/05/15 00:57:28;;;;;;;6.20;2.30;;;;;;;;;;6187115;23;20075;-61
2021/05/15 00:59:55;;;;;;;2.10;1.20;;;;;;;;;;6186762;23;20012;-60
2021/05/15 01:02:28;;;;;;;7.10;1.50;;;;;;;;;;6186807;23;20381;-60
2021/05/15 01:04:59;;;;;;;4.17;1.57;;;;;;;;;;6186167;23;20392;-61
2021/05/15 01:07:26;;;;;;;2.47;1.00;;;;;;;;;;6178266;23;20074;-61
2021/05/15 01:09:53;;;;;;;2.13;1.20;;;;;;;;;;6186834;23;20052;-61
2021/05/15 01:12:20;;;;;;;7.87;1.60;;;;;;;;;;6160293;23;20440;-61
2021/05/15 01:14:47;;;;;;;3.43;1.10;;;;;;;;;;6186867;23;20443;-61
2021/05/15 01:17:14;;;;;;;2.70;0.90;;;;;;;;;;6186863;23;20012;-61
2021/05/15 01:19:41;;;;;;;1.80;0.90;;;;;;;;;;6160211;23;20087;-60
2021/05/15 01:22:32;;;;;;;1.50;0.70;;;;;;;;;;6186603;23;20488;-61
2021/05/15 01:25:06;;;;;;;3.10;1.13;;;;;;;;;;6186069;23;20024;-61
2021/05/15 01:27:39;;;;;;;2.17;0.77;;;;;;;;;;6186635;23;20076;-60
2021/05/15 01:30:07;;;;;;;1.80;0.90;;;;;;;;;;6186414;23;20443;-60
2021/05/15 01:32:36;;;;;;;2.47;0.63;;;;;;;;;;6186487;23;20009;-61
2021/05/15 01:35:07;;;;;;;1.90;0.80;;;;;;;;;;6186642;23;20005;-61
2021/05/15 01:37:34;;;;;;;1.40;0.63;;;;;;;;;;6185271;23;20436;-61
2021/05/15 01:40:01;;;;;;;1.00;0.63;;;;;;;;;;6186683;23;20001;-60
2021/05/15 01:42:28;;;;;;;1.57;0.60;;;;;;;;;;6186492;23;20021;-60
2021/05/15 01:44:55;;;;;;;2.87;0.70;;;;;;;;;;6186440;23;20364;-60
2021/05/15 01:47:22;;;;;;;1.80;1.23;;;;;;;;;;6186515;23;20055;-61
2021/05/15 01:49:49;;;;;;;1.57;0.67;;;;;;;;;;6186262;23;20012;-61
2021/05/15 01:52:35;;;;;;;;;;;;;;;;;;;;;
2021/05/15 01:55:13;;;;;;;3.13;0.60;;;;;;;;;;6186430;23;20384;-61
2021/05/15 01:57:40;;;;;;;1.57;0.77;;;;;;;;;;6186392;23;20001;-61
2021/05/15 02:00:07;;;;;;;3.10;0.63;;;;;;;;;;6186235;23;20041;-61
2021/05/15 02:02:34;;;;;;;1.90;0.73;;;;;;;;;;6186305;23;20005;-61
2021/05/15 02:05:01;;;;;;;1.80;0.70;;;;;;;;;;6186261;23;20268;-61
2021/05/15 02:07:28;;;;;;;1.13;0.70;;;;;;;;;;6186304;23;20051;-61
2021/05/15 02:09:54;;;;;;;4.10;0.90;;;;;;;;;;6186182;23;20434;-60
2021/05/15 02:12:21;;;;;;;1.27;0.67;;;;;;;;;;6186175;23;20011;-61
2021/05/15 02:14:48;;;;;;;1.80;0.80;;;;;;;;;;6186170;23;20012;-61
2021/05/15 02:17:15;;;;;;;1.37;0.80;;;;;;;;;;6186177;23;20020;-61
2021/05/15 02:19:41;;;;;;;1.73;0.93;;;;;;;;;;6186061;23;20005;-61
2021/05/15 02:22:08;;;;;;;1.80;0.70;;;;;;;;;;6186167;23;20001;-60
2021/05/15 02:24:35;;;;;;;2.13;0.73;;;;;;;;;;6186133;23;20012;-60
2021/05/15 02:27:02;;;;;;;2.87;1.00;;;;;;;;;;6186201;23;20001;-61
2021/05/15 02:29:40;;;;;;;2.00;0.80;;;;;;;;;;6163922;23;20009;-60
2021/05/15 02:32:14;;;;;;;1.20;0.60;;;;;;;;;;6186125;23;20013;-60
2021/05/15 02:34:49;;;;;;;3.65;1.00;;;;;;;;;;6186138;23;20001;-60
2021/05/15 02:37:16;;;;;;;1.67;0.90;;;;;;;;;;6188051;22;20017;-61
2021/05/15 02:39:43;;;;;;;1.93;0.87;;;;;;;;;;6186114;23;20010;-61
2021/05/15 02:42:10;;;;;;;5.97;1.10;;;;;;;;;;6185971;23;20424;-61
2021/05/15 02:44:36;;;;;;;1.93;0.80;;;;;;;;;;6185921;23;20020;-60
2021/05/15 02:47:03;;;;;;;1.70;0.90;;;;;;;;;;6185862;23;20001;-60
2021/05/15 02:49:30;;;;;;;2.37;1.10;;;;;;;;;;6185871;23;19997;-61
2021/05/15 02:51:57;;;;;;;1.70;1.17;;;;;;;;;;6185990;23;20349;-60
2021/05/15 02:54:24;;;;;;;4.33;1.23;;;;;;;;;;6185930;23;20336;-60
2021/05/15 02:56:50;;;;;;;2.57;1.40;;;;;;;;;;6185824;23;20046;-60
2021/05/15 02:59:17;;;;;;;2.13;1.23;;;;;;;;;;6185888;23;20012;-60
2021/05/15 03:01:44;;;;;;;4.73;1.10;;;;;;;;;;6186188;23;20028;-61
2021/05/15 03:04:11;;;;;;;1.70;1.00;;;;;;;;;;6185555;23;20379;-61
2021/05/15 03:06:37;;;;;;;2.93;1.00;;;;;;;;;;6185995;23;20009;-61
2021/05/15 03:09:04;;;;;;;2.57;1.00;;;;;;;;;;6185325;23;20007;-60
2021/05/15 03:11:31;;;;;;;4.63;1.10;;;;;;;;;;6185530;23;20005;-60
2021/05/15 03:13:58;;;;;;;2.43;1.10;;;;;;;;;;6186025;23;20005;-60
2021/05/15 03:16:25;;;;;;;3.57;0.80;;;;;;;;;;6185489;23;20005;-61
2021/05/15 03:18:51;;;;;;;3.13;1.00;;;;;;;;;;6185556;23;20001;-60
2021/05/15 03:21:27;;;;;;;2.40;1.10;;;;;;;;;;6185311;23;20056;-61
2021/05/15 03:23:54;;;;;;;1.77;1.10;;;;;;;;;;6185233;23;20033;-61
2021/05/15 03:26:20;;;;;;;7.20;0.90;;;;;;;;;;6185096;23;20005;-60
2021/05/15 03:28:47;;;;;;;3.40;0.80;;;;;;;;;;6185460;23;20001;-60
2021/05/15 03:31:14;;;;;;;3.70;1.03;;;;;;;;;;6185396;23;20080;-60
2021/05/15 03:33:41;;;;;;;1.57;0.87;;;;;;;;;;6185346;23;20011;-61
2021/05/15 03:36:14;;;;;;;2.00;0.90;;;;;;;;;;6187432;22;20016;-61
2021/05/15 03:38:41;;;;;;;2.30;1.07;;;;;;;;;;6185572;23;20084;-61
2021/05/15 03:41:08;;;;;;;3.23;0.90;;;;;;;;;;6185626;23;20005;-61
2021/05/15 03:43:34;;;;;;;1.50;1.00;;;;;;;;;;6185046;23;20005;-61
2021/05/15 03:46:01;;;;;;;2.10;1.20;;;;;;;;;;6185284;23;20013;-61
2021/05/15 03:48:28;;;;;;;1.90;0.83;;;;;;;;;;6159327;23;20099;-61
2021/05/15 03:50:55;;;;;;;5.20;1.00;;;;;;;;;;6185391;23;20024;-61
2021/05/15 03:53:22;;;;;;;1.80;0.93;;;;;;;;;;6185210;23;20516;-61
2021/05/15 03:55:49;;;;;;;2.20;1.10;;;;;;;;;;6185273;23;20080;-61
2021/05/15 03:58:17;;;;;;;1.10;0.57;;;;;;;;;;6185199;23;20009;-61
2021/05/15 04:00:43;;;;;;;3.43;1.77;;;;;;;;;;6185300;23;20001;-60
2021/05/15 04:03:10;;;;;;;3.33;1.00;;;;;;;;;;6185178;23;20058;-60
2021/05/15 04:05:37;;;;;;;3.13;0.73;;;;;;;;;;6185138;23;20012;-60
2021/05/15 04:08:04;;;;;;;2.03;0.83;;;;;;;;;;6185068;23;20001;-61
2021/05/15 04:10:31;;;;;;;0.93;0.60;;;;;;;;;;6185400;23;20005;-61
2021/05/15 04:15:45;;;;;;;0.60;0.60;;;;;;;;;;6185611;23;20047;-60
2021/05/15 04:18:13;;;;;;;2.13;0.90;;;;;;;;;;6185093;23;20016;-60
2021/05/15 04:20:40;;;;;;;2.00;0.80;;;;;;;;;;6185271;23;20005;-60
2021/05/15 04:23:07;;;;;;;1.73;0.80;;;;;;;;;;6185242;23;20009;-60
2021/05/15 04:25:35;;;;;;;1.57;0.90;;;;;;;;;;6185065;23;20091;-60
2021/05/15 04:28:02;;;;;;;1.70;0.80;;;;;;;;;;6184984;23;20001;-60
2021/05/15 04:30:29;;;;;;;2.60;1.40;;;;;;;;;;6158730;23;20036;-60
2021/05/15 04:32:56;;;;;;;3.23;1.10;;;;;;;;;;6185143;23;20479;-60
2021/05/15 04:35:23;;;;;;;3.57;1.00;;;;;;;;;;6185375;23;20503;-60
2021/05/15 04:37:57;;;;;;;1.73;1.10;;;;;;;;;;6187007;22;20013;-60
2021/05/15 04:40:23;;;;;;;1.10;0.70;;;;;;;;;;6185231;23;20009;-61
2021/05/15 04:42:50;;;;;;;1.87;1.13;;;;;;;;;;6184927;23;20455;-60
2021/05/15 04:45:17;;;;;;;1.37;0.60;;;;;;;;;;6184851;23;20017;-61
2021/05/15 04:47:44;;;;;;;2.33;0.93;;;;;;;;;;6184999;23;20009;-60
2021/05/15 04:50:12;;;;;;;2.93;0.77;;;;;;;;;;6185021;23;20019;-60
2021/05/15 04:52:38;;;;;;;1.40;0.80;;;;;;;;;;6185050;23;19997;-60
2021/05/15 04:55:06;;;;;;;2.70;1.17;;;;;;;;;;6184931;23;20075;-60
2021/05/15 04:57:33;;;;;;;2.47;0.90;;;;;;;;;;6185059;23;20001;-60
2021/05/15 05:00:00;;;;;;;4.87;1.40;;;;;;;;;;6184660;23;20001;-60
2021/05/15 05:02:26;;;;;;;3.13;1.30;;;;;;;;;;6185244;23;20368;-60
2021/05/15 05:04:53;;;;;;;2.00;0.90;;;;;;;;;;6184772;23;20013;-60
2021/05/15 05:07:20;;;;;;;1.50;0.77;;;;;;;;;;6184896;23;20035;-60
2021/05/15 05:09:47;;;;;;;1.20;0.90;;;;;;;;;;6184895;23;20013;-60
2021/05/15 05:12:14;;;;;;;2.17;1.20;;;;;;;;;;6184851;23;20080;-60
2021/05/15 05:14:42;;;;;;;3.53;1.27;;;;;;;;;;6184896;23;20144;-60
2021/05/15 05:17:09;;;;;;;2.47;1.10;;;;;;;;;;6184870;23;20004;-60
2021/05/15 05:19:36;;;;;;;1.80;0.90;;;;;;;;;;6184995;23;20076;-60
2021/05/15 05:22:03;;;;;;;2.40;0.93;;;;;;;;;;6184993;23;20001;-60
2021/05/15 05:24:30;;;;;;;2.53;1.10;;;;;;;;;;6184339;23;20040;-60
2021/05/15 05:26:58;;;;;;;1.23;0.70;;;;;;;;;;6186526;23;20077;-60
2021/05/15 05:29:25;;;;;;;1.40;0.70;;;;;;;;;;6186558;23;20009;-60
2021/05/15 05:31:53;;;;;;;2.00;1.10;;;;;;;;;;6186623;23;20004;-60
2021/05/15 05:34:20;;;;;;;1.73;0.70;;;;;;;;;;6186665;23;20005;-60
2021/05/15 05:36:48;;;;;;;4.00;1.20;;;;;;;;;;6188663;22;20028;-60
2021/05/15 05:39:16;;;;;;;1.70;0.93;;;;;;;;;;6186575;23;20008;-60
2021/05/15 05:41:44;;;;;;;2.77;1.10;;;;;;;;;;6186469;23;20391;-60
2021/05/15 05:44:11;;;;;;;1.93;0.90;;;;;;;;;;6186506;23;20009;-60
2021/05/15 05:46:38;;;;;;;1.40;0.90;;;;;;;;;;6186762;23;20001;-60
2021/05/15 05:49:05;;;;;;;1.47;0.97;;;;;;;;;;6186566;23;19997;-60
2021/05/15 05:51:32;;;;;;;2.10;1.00;;;;;;;;;;6186570;23;20001;-60
2021/05/15 05:53:59;;;;;;;2.40;1.00;;;;;;;;;;6186426;23;20265;-60
2021/05/15 05:56:26;;;;;;;2.87;1.23;;;;;;;;;;6186372;23;20394;-60
2021/05/15 05:58:53;;;;;;;3.33;1.27;;;;;;;;;;6186270;23;20047;-60
2021/05/15 06:01:20;;;;;;;2.03;1.10;;;;;;;;;;6186076;23;20428;-60
2021/05/15 06:03:46;;;;;;;4.17;1.03;;;;;;;;;;6186383;23;20005;-60
2021/05/15 06:06:13;;;;;;;1.70;1.00;;;;;;;;;;6186402;23;20009;-60
2021/05/15 06:08:40;;;;;;;2.57;1.27;;;;;;;;;;6186355;23;20007;-60
2021/05/15 06:11:07;;;;;;;1.10;0.70;;;;;;;;;;6186203;23;20008;-60
2021/05/15 06:13:35;;;;;;;2.27;0.90;;;;;;;;;;6186270;23;20019;-60
2021/05/15 06:16:01;;;;;;;1.77;0.90;;;;;;;;;;6186284;23;20001;-60
2021/05/15 06:18:28;;;;;;;1.80;1.17;;;;;;;;;;6186955;23;20004;-60
2021/05/15 06:20:56;;;;;;;1.93;0.90;;;;;;;;;;6186136;23;20009;-60
2021/05/15 06:23:23;;;;;;;2.67;1.10;;;;;;;;;;6186055;23;20001;-60
2021/05/15 06:25:51;;;;;;;1.83;1.03;;;;;;;;;;6186025;23;20009;-60
2021/05/15 06:28:18;;;;;;;1.93;1.10;;;;;;;;;;6186044;23;20424;-60
2021/05/15 06:30:45;;;;;;;6.13;1.53;;;;;;;;;;6186238;23;20047;-60
2021/05/15 06:33:12;;;;;;;2.00;1.00;;;;;;;;;;6186124;23;20067;-60
2021/05/15 06:35:39;;;;;;;2.30;1.10;;;;;;;;;;6185507;23;20005;-60
2021/05/15 06:38:06;;;;;;;2.43;1.30;;;;;;;;;;6187692;22;20024;-60
2021/05/15 06:40:34;;;;;;;3.00;1.27;;;;;;;;;;6185862;23;20005;-60
2021/05/15 06:43:00;;;;;;;4.10;1.30;;;;;;;;;;6186004;23;20005;-60
2021/05/15 06:45:27;;;;;;;3.43;1.00;;;;;;;;;;6185832;23;20317;-60
2021/05/15 06:47:54;;;;;;;2.47;1.37;;;;;;;;;;6159519;23;20012;-60
2021/05/15 06:50:21;;;;;;;5.17;2.23;;;;;;;;;;6160053;23;20301;-60
2021/05/15 06:52:48;;;;;;;2.43;1.20;;;;;;;;;;6185832;23;20029;-60
2021/05/15 06:55:14;;;;;;;1.93;1.07;;;;;;;;;;6186172;23;20084;-60
2021/05/15 06:57:41;;;;;;;4.70;1.30;;;;;;;;;;6159428;23;20001;-60
2021/05/15 07:00:08;;;;;;;1.63;0.97;;;;;;;;;;6185841;23;20076;-60
2021/05/15 07:02:35;;;;;;;2.70;1.27;;;;;;;;;;6185755;23;20056;-60
2021/05/15 07:05:02;;;;;;;2.00;1.20;;;;;;;;;;6185675;23;20013;-60
2021/05/15 07:07:29;;;;;;;3.07;1.43;;;;;;;;;;6185809;23;20480;-60
2021/05/15 07:09:55;;;;;;;2.77;1.30;;;;;;;;;;6185634;23;20421;-60
2021/05/15 07:12:23;;;;;;;2.80;1.00;;;;;;;;;;6185620;23;20493;-60
2021/05/15 07:14:50;;;;;;;4.30;1.20;;;;;;;;;;6185743;23;20001;-60
2021/05/15 07:17:17;;;;;;;3.63;1.27;;;;;;;;;;6159233;23;20229;-60
2021/05/15 07:19:43;;;;;;;2.67;1.43;;;;;;;;;;6185284;23;20044;-60
2021/05/15 07:22:10;;;;;;;1.80;0.93;;;;;;;;;;6185690;23;20001;-60
2021/05/15 07:24:37;;;;;;;2.70;1.30;;;;;;;;;;6185423;23;20023;-60
2021/05/15 07:27:04;;;;;;;1.90;1.00;;;;;;;;;;6185595;23;19997;-60
2021/05/15 07:29:31;;;;;;;1.93;1.30;;;;;;;;;;6185461;23;20336;-60
2021/05/15 07:31:57;;;;;;;1.93;1.30;;;;;;;;;;6185098;23;20005;-60
2021/05/15 07:34:24;;;;;;;2.60;1.33;;;;;;;;;;6185561;23;20005;-60
2021/05/15 07:36:51;;;;;;;2.67;1.10;;;;;;;;;;6187557;22;20091;-60
2021/05/15 07:39:18;;;;;;;4.60;1.20;;;;;;;;;;6185434;23;20008;-60
2021/05/15 07:41:44;;;;;;;2.23;1.13;;;;;;;;;;6184874;23;20028;-60
2021/05/15 07:44:11;;;;;;;3.97;1.20;;;;;;;;;;6185249;23;20009;-60
2021/05/15 07:46:38;;;;;;;3.20;1.17;;;;;;;;;;6185342;23;20464;-60
2021/05/15 07:49:05;;;;;;;3.80;1.03;;;;;;;;;;6185013;23;20032;-60
2021/05/15 07:51:32;;;;;;;3.10;1.30;;;;;;;;;;6185343;23;20079;-60
2021/05/15 07:53:58;;;;;;;3.67;1.43;;;;;;;;;;6158983;23;20428;-60
2021/05/15 07:56:25;;;;;;;3.07;1.30;;;;;;;;;;6185321;23;20452;-60
2021/05/15 07:58:52;;;;;;;3.03;1.40;;;;;;;;;;6185181;23;20028;-60
2021/05/15 08:01:19;;;;;;;2.10;1.30;;;;;;;;;;6185382;23;20000;-60
2021/05/15 08:03:46;;;;;;;3.80;1.80;;;;;;;;;;6184959;23;20151;-60
2021/05/15 08:06:13;;;;;;;2.80;1.40;;;;;;;;;;6185284;23;20016;-60
2021/05/15 08:08:39;;;;;;;3.80;1.70;;;;;;;;;;6185253;23;20001;-60
2021/05/15 08:11:06;;;;;;;2.67;1.40;;;;;;;;;;6185100;23;20005;-60
2021/05/15 08:13:33;;;;;;;2.50;1.50;;;;;;;;;;6185301;23;20532;-60
2021/05/15 08:16:00;;;;;;;5.20;1.60;;;;;;;;;;6185134;23;20354;-60
2021/05/15 08:18:27;;;;;;;2.37;1.30;;;;;;;;;;6185288;23;20204;-60
2021/05/15 08:20:54;;;;;;;2.10;1.30;;;;;;;;;;6184906;23;20012;-60
2021/05/15 08:23:20;;;;;;;2.70;1.50;;;;;;;;;;6184971;23;20008;-60
2021/05/15 08:25:47;;;;;;;2.77;1.50;;;;;;;;;;6185011;23;20019;-60
2021/05/15 08:28:16;;;;;;;3.73;1.40;;;;;;;;;;6185000;23;20008;-60
2021/05/15 08:30:43;;;;;;;2.10;1.20;;;;;;;;;;6185222;23;20440;-60
2021/05/15 08:33:10;;;;;;;2.30;1.40;;;;;;;;;;6185172;23;20005;-60
2021/05/15 08:35:37;;;;;;;1.90;1.40;;;;;;;;;;6185149;23;20001;-60
2021/05/15 08:38:05;;;;;;;2.50;1.10;;;;;;;;;;6187100;22;20020;-60
2021/05/15 08:40:33;;;;;;;3.53;1.53;;;;;;;;;;6185113;23;20008;-60
2021/05/15 08:43:04;;;;;;;2.97;1.20;;;;;;;;;;6183784;23;20055;-60
2021/05/15 08:45:30;;;;;;;1.70;1.17;;;;;;;;;;6185045;23;20425;-60
2021/05/15 08:47:57;;;;;;;4.53;1.40;;;;;;;;;;6185216;23;20012;-60
2021/05/15 08:50:26;;;;;;;2.67;1.30;;;;;;;;;;6185005;23;20024;-60
2021/05/15 08:52:54;;;;;;;2.13;1.30;;;;;;;;;;6185092;23;20001;-60
2021/05/15 08:55:27;;;;;;;4.23;1.70;;;;;;;;;;6184943;23;20080;-59
2021/05/15 08:57:55;;;;;;;2.23;1.57;;;;;;;;;;6184877;23;20043;-59
2021/05/15 09:00:24;;;;;;;1.47;1.10;;;;;;;;;;6185336;23;20080;-60
2021/05/15 09:02:53;;;;;;;1.20;1.00;;;;;;;;;;6186991;23;20429;-60
2021/05/15 09:05:20;;;;;;;2.43;1.30;;;;;;;;;;6186908;23;20013;-60
2021/05/15 09:07:51;;;;;;;2.23;1.20;;;;;;;;;;6187003;23;20316;-60
2021/05/15 09:10:19;;;;;;;2.63;1.33;;;;;;;;;;6160443;23;20031;-60
2021/05/15 09:12:46;;;;;;;1.87;1.10;;;;;;;;;;6186777;23;20011;-60
2021/05/15 09:15:14;;;;;;;2.83;1.27;;;;;;;;;;6186480;23;20059;-60
2021/05/15 09:17:51;;;;;;;3.93;1.20;;;;;;;;;;6187190;23;20005;-60
2021/05/15 09:20:25;;;;;;;2.90;1.30;;;;;;;;;;6186828;23;20080;-60
2021/05/15 09:22:52;;;;;;;3.10;1.38;;;;;;;;;;6186906;23;20001;-59
2021/05/15 09:25:19;;;;;;;3.07;1.27;;;;;;;;;;6186534;23;20013;-60
2021/05/15 09:27:46;;;;;;;1.97;1.13;;;;;;;;;;6186716;23;20007;-60
2021/05/15 09:30:14;;;;;;;2.47;1.10;;;;;;;;;;6186637;23;20009;-60
2021/05/15 09:32:40;;;;;;;2.40;1.20;;;;;;;;;;6186591;23;19997;-60
2021/05/15 09:35:07;;;;;;;2.70;1.20;;;;;;;;;;6186550;23;20015;-60
2021/05/15 09:37:36;;;;;;;4.27;1.40;;;;;;;;;;6188599;22;20083;-60
2021/05/15 09:40:16;;;;;;;3.07;1.10;;;;;;;;;;6186679;23;20436;-60
2021/05/15 09:43:01;;;;;;;1.90;1.20;;;;;;;;;;6186512;23;19999;-60
2021/05/15 09:45:30;;;;;;;6.63;1.50;;;;;;;;;;6186605;23;20013;-60
2021/05/15 09:48:04;;;;;;;1.93;1.33;;;;;;;;;;6186443;23;20009;-60
2021/05/15 09:50:35;;;;;;;1.40;1.10;;;;;;;;;;6186502;23;20005;-60
2021/05/15 09:53:12;;;;;;;6.00;1.43;;;;;;;;;;6186499;23;20021;-60
2021/05/15 09:55:43;;;;;;;1.50;0.93;;;;;;;;;;6186697;23;20005;-60
2021/05/15 09:58:11;;;;;;;1.80;1.10;;;;;;;;;;6186244;23;20432;-60
2021/05/15 10:00:45;;;;;;;2.30;1.10;;;;;;;;;;6186350;23;20004;-60
2021/05/15 10:03:19;;;;;;;1.53;0.90;;;;;;;;;;6186421;23;20012;-60
2021/05/15 10:05:46;;;;;;;1.57;1.00;;;;;;;;;;6186057;23;20278;-60
2021/05/15 10:08:12;;;;;;;2.03;1.10;;;;;;;;;;6186202;23;20012;-60
2021/05/15 10:10:39;;;;;;;1.87;1.20;;;;;;;;;;6186627;23;20033;-60
2021/05/15 10:13:06;;;;;;;1.97;1.30;;;;;;;;;;6185913;23;20072;-60
2021/05/15 10:15:33;;;;;;;2.30;1.30;;;;;;;;;;6186189;23;20012;-60
2021/05/15 10:18:13;;;;;;;3.60;1.00;;;;;;;;;;6186154;23;20047;-60
2021/05/15 10:20:40;;;;;;;2.80;1.10;;;;;;;;;;6186121;23;20048;-60
2021/05/15 10:23:15;;;;;;;2.50;1.30;;;;;;;;;;6186178;23;20433;-60
2021/05/15 10:25:42;;;;;;;5.90;3.10;;;;;;;;;;6186324;23;20096;-60
2021/05/15 10:28:09;;;;;;;6.80;4.20;;;;;;;;;;6159782;23;20055;-60
2021/05/15 10:30:36;;;;;;;5.40;3.87;;;;;;;;;;6159693;23;20009;-60
2021/05/15 10:33:07;;;;;;;5.67;3.17;;;;;;;;;;6185964;23;20072;-60
2021/05/15 10:35:41;;;;;;;5.63;2.80;;;;;;;;;;6185978;23;20009;-60
2021/05/15 10:38:13;;;;;;;3.93;2.57;;;;;;;;;;6188059;22;20027;-60
2021/05/15 10:40:44;;;;;;;6.50;2.90;;;;;;;;;;6186083;23;20012;-60
2021/05/15 10:43:10;;;;;;;4.87;2.50;;;;;;;;;;6185981;23;20001;-60
2021/05/15 10:45:38;;;;;;;4.00;2.37;;;;;;;;;;6185915;23;20013;-60
2021/05/15 10:48:12;;;;;;;5.47;2.50;;;;;;;;;;6185972;23;20001;-60
2021/05/15 10:50:49;;;;;;;3.80;2.20;;;;;;;;;;6185941;23;20072;-60
2021/05/15 10:53:20;;;;;;;3.97;2.07;;;;;;;;;;6186045;23;20023;-60
2021/05/15 10:56:00;;;;;;;3.30;1.77;;;;;;;;;;6159918;23;20348;-60
2021/05/15 10:58:38;;;;;;;3.10;1.90;;;;;;;;;;6185895;23;19993;-60
2021/05/15 11:01:16;;;;;;;2.70;1.60;;;;;;;;;;6185713;23;20008;-60
2021/05/15 11:03:43;;;;;;;3.37;2.20;;;;;;;;;;6185823;23;20001;-60
2021/05/15 11:06:17;;;;;;;3.90;1.87;;;;;;;;;;6185757;23;20009;-60
2021/05/15 11:08:44;;;;;;;2.08;1.27;;;;;;;;;;6185744;23;20025;-60
2021/05/15 11:11:12;;;;;;;2.50;1.67;;;;;;;;;;6185752;23;20330;-60
2021/05/15 11:13:47;;;;;;;3.70;1.30;;;;;;;;;;6185814;23;20029;-60
2021/05/15 11:16:13;;;;;;;;;;;;;;;;;;6186168;23;20059;-59
2021/05/15 11:18:40;;;;;;;4.50;1.77;;;;;;;;;;6185692;23;19907;-60
2021/05/15 11:21:07;;;;;;;3.00;1.80;;;;;;;;;;6185693;23;20079;-60
2021/05/15 11:23:36;;;;;;;3.47;1.50;;;;;;;;;;6185802;23;20067;-60
2021/05/15 11:26:11;;;;;;;2.43;1.30;;;;;;;;;;6185542;23;20009;-60
2021/05/15 11:28:38;;;;;;;2.33;1.50;;;;;;;;;;6185700;23;20002;-60
2021/05/15 11:31:12;;;;;;;2.40;1.40;;;;;;;;;;6185580;23;20009;-59
2021/05/15 11:33:39;;;;;;;3.10;1.58;;;;;;;;;;6185521;23;20005;-60
2021/05/15 11:36:06;;;;;;;2.33;1.30;;;;;;;;;;6185685;23;20011;-60
2021/05/15 11:38:33;;;;;;;2.93;1.30;;;;;;;;;;6187274;22;20403;-60
2021/05/15 11:41:02;;;;;;;2.40;1.20;;;;;;;;;;6185522;23;20016;-60
2021/05/15 11:43:33;;;;;;;1.80;1.30;;;;;;;;;;6185369;23;20001;-60
2021/05/15 11:46:00;;;;;;;2.90;1.30;;;;;;;;;;6185744;23;20017;-59
2021/05/15 11:48:32;;;;;;;3.17;1.77;;;;;;;;;;6185438;23;20070;-59
2021/05/15 11:51:09;;;;;;;5.43;1.40;;;;;;;;;;6185454;23;20001;-60
2021/05/15 11:53:38;;;;;;;4.83;1.80;;;;;;;;;;6185846;23;20332;-60
2021/05/15 11:56:16;;;;;;;4.90;1.97;;;;;;;;;;6185552;23;19997;-60
2021/05/15 11:58:44;;;;;;;5.47;2.20;;;;;;;;;;6185301;23;20375;-60
2021/05/15 12:01:21;;;;;;;5.57;2.13;;;;;;;;;;6185443;23;20015;-60
2021/05/15 12:03:47;;;;;;;3.70;1.90;;;;;;;;;;6185293;23;20031;-60
2021/05/15 12:06:15;;;;;;;6.13;1.97;;;;;;;;;;6185366;23;20079;-60
2021/05/15 12:08:42;;;;;;;5.90;1.93;;;;;;;;;;6185276;23;20006;-60
2021/05/15 12:11:10;;;;;;;11.63;6.13;;;;;;;;;;6185221;23;20005;-60
2021/05/15 12:13:37;;;;;;;7.50;3.03;;;;;;;;;;6185170;23;20051;-60
2021/05/15 12:16:04;;;;;;;2.97;1.97;;;;;;;;;;6185346;23;20005;-60
2021/05/15 12:18:31;;;;;;;5.20;1.70;;;;;;;;;;6185151;23;20084;-60
2021/05/15 12:21:04;;;;;;;4.37;1.80;;;;;;;;;;6185246;23;20009;-60
2021/05/15 12:23:30;;;;;;;3.17;1.60;;;;;;;;;;6185245;23;20378;-60
2021/05/15 12:26:01;;;;;;;1.90;1.10;;;;;;;;;;6185063;23;20100;-60
2021/05/15 12:28:29;;;;;;;4.60;1.67;;;;;;;;;;6185520;23;20028;-60
2021/05/15 12:30:59;;;;;;;2.33;1.20;;;;;;;;;;6185661;23;20035;-60
2021/05/15 12:33:27;;;;;;;3.00;1.47;;;;;;;;;;6158794;23;20005;-60
2021/05/15 12:36:01;;;;;;;2.57;1.60;;;;;;;;;;6186101;23;20028;-60
2021/05/15 12:38:29;;;;;;;6.25;2.38;;;;;;;;;;6189219;22;20043;-60
2021/05/15 12:41:06;;;;;;;3.30;2.30;;;;;;;;;;6187181;23;20007;-60
2021/05/15 12:43:32;;;;;;;2.93;1.63;;;;;;;;;;6187165;23;20005;-60
2021/05/15 12:46:07;;;;;;;5.20;2.20;;;;;;;;;;6186957;23;20013;-60
2021/05/15 12:48:39;;;;;;;4.10;2.38;;;;;;;;;;6187064;23;20008;-60
2021/05/15 12:51:16;;;;;;;4.50;2.60;;;;;;;;;;6187036;23;20063;-60
2021/05/15 12:53:43;;;;;;;3.67;2.33;;;;;;;;;;6187103;23;19997;-60
2021/05/15 12:56:13;;;;;;;7.33;2.33;;;;;;;;;;6160678;23;20333;-60
2021/05/15 12:58:40;;;;;;;3.17;2.07;;;;;;;;;;6186850;23;20005;-60
2021/05/15 13:01:08;;;;;;;5.10;2.50;;;;;;;;;;6187090;23;19997;-60
2021/05/15 13:03:35;;;;;;;3.67;1.97;;;;;;;;;;6186907;23;20016;-60
2021/05/15 13:06:12;;;;;;;4.03;2.23;;;;;;;;;;6186908;23;20440;-60
2021/05/15 13:08:39;;;;;;;3.90;1.70;;;;;;;;;;6186973;23;20001;-60
2021/05/15 13:11:15;;;;;;;4.43;2.23;;;;;;;;;;6186755;23;20005;-59
2021/05/15 13:14:04;;;;;;;;;;;;;;;;;;;;;
2021/05/15 13:16:41;;;;;;;4.67;1.87;;;;;;;;;;6186814;23;20013;-58
2021/05/15 13:19:08;;;;;;;2.60;1.60;;;;;;;;;;6186751;23;20012;-58
2021/05/15 13:21:48;;;;;;;3.47;1.80;;;;;;;;;;6186940;23;20028;-59
2021/05/15 13:24:21;;;;;;;4.33;2.10;;;;;;;;;;6186349;23;20001;-59
2021/05/15 13:26:49;;;;;;;8.73;2.30;;;;;;;;;;6186584;23;20424;-58
2021/05/15 13:29:22;;;;;;;3.70;2.13;;;;;;;;;;6186725;23;20428;-58
2021/05/15 13:31:58;;;;;;;5.13;2.50;;;;;;;;;;6186777;23;20024;-58
2021/05/15 13:34:40;;;;;;;6.90;3.90;;;;;;;;;;6186699;23;20424;-59
2021/05/15 13:37:07;;;;;;;6.00;3.43;;;;;;;;;;6188939;22;20036;-59
2021/05/15 13:39:36;;;;;;;3.77;2.77;;;;;;;;;;6186771;23;20237;-59
2021/05/15 13:42:20;;;;;;;5.63;2.70;;;;;;;;;;6186179;23;20020;-58
2021/05/15 13:45:01;;;;;;;4.07;2.37;;;;;;;;;;6185736;23;20076;-59
2021/05/15 13:47:28;;;;;;;4.57;2.77;;;;;;;;;;6185657;23;20008;-59
2021/05/15 13:49:55;;;;;;;8.00;2.73;;;;;;;;;;6186696;23;20072;-60
2021/05/15 13:52:23;;;;;;;7.97;2.90;;;;;;;;;;6186450;23;20011;-58
2021/05/15 13:55:01;;;;;;;8.97;3.53;;;;;;;;;;6186365;23;20052;-60
2021/05/15 13:57:31;;;;;;;4.77;2.93;;;;;;;;;;6185698;23;20029;-60
2021/05/15 14:00:15;;;;;;;6.80;3.57;;;;;;;;;;6186500;23;20012;-59
2021/05/15 14:02:49;;;;;;;5.17;2.90;;;;;;;;;;6184247;23;20005;-60
2021/05/15 14:05:24;;;;;;;6.10;4.10;;;;;;;;;;6185961;23;20024;-60
2021/05/15 14:07:58;;;;;;;6.77;3.93;;;;;;;;;;6186308;23;19997;-58
2021/05/15 14:13:24;;;;;;;6.00;3.20;;;;;;;;;;6183077;23;20088;-60
2021/05/15 14:15:50;;;;;;;6.00;3.13;;;;;;;;;;6186354;23;20080;-60
2021/05/15 14:18:17;;;;;;;5.83;3.57;;;;;;;;;;6186265;23;20325;-60
2021/05/15 14:20:44;;;;;;;8.93;4.57;;;;;;;;;;6186194;23;20004;-60
2021/05/15 14:23:11;;;;;;;10.27;4.67;;;;;;;;;;6186256;23;19997;-60
2021/05/15 14:25:38;;;;;;;8.07;4.87;;;;;;;;;;6186241;23;20036;-60
2021/05/15 14:28:05;;;;;;;8.57;4.87;;;;;;;;;;6186679;23;20024;-60
2021/05/15 14:30:32;;;;;;;5.37;3.23;;;;;;;;;;6186112;23;20444;-60
2021/05/15 14:32:58;;;;;;;4.60;2.70;;;;;;;;;;6186217;23;20367;-60
2021/05/15 14:35:25;;;;;;;4.90;2.97;;;;;;;;;;6186057;23;20016;-60
2021/05/15 14:37:52;;;;;;;5.60;2.90;;;;;;;;;;6187880;22;20040;-60
2021/05/15 14:40:21;;;;;;;8.97;3.00;;;;;;;;;;6185944;23;20306;-60
2021/05/15 14:42:48;;;;;;;8.87;5.70;;;;;;;;;;6185823;23;20012;-60
2021/05/15 14:45:15;;;;;;;11.57;5.93;;;;;;;;;;6185951;23;20009;-60
2021/05/15 14:47:42;;;;;;;11.60;6.70;;;;;;;;;;6185914;23;20480;-60
2021/05/15 14:50:08;;;;;;;10.60;6.63;;;;;;;;;;6186073;23;20067;-60
2021/05/15 14:52:35;;;;;;;9.97;6.93;;;;;;;;;;6186026;23;20005;-60
2021/05/15 14:55:04;;;;;;;11.47;6.53;;;;;;;;;;6185843;23;20001;-60
2021/05/15 14:57:30;;;;;;;11.10;7.13;;;;;;;;;;6185608;23;20010;-61
2021/05/15 14:59:57;;;;;;;10.43;7.17;;;;;;;;;;6185751;23;20025;-61
2021/05/15 15:02:24;;;;;;;11.77;6.87;;;;;;;;;;6185763;23;20009;-61